sensor_id;sensor_type;location;lat;lon;timestamp;temperature;humidity
14154;DHT22;7157;53.144;7.570;2023-12-22T00:07:56;5.60;104.98
14154;DHT22;7157;53.144;7.570;2023-12-22T00:18:01;5.82;101.06
14154;DHT22;7157;53.144;7.570;2023-12-22T00:28:04;6.27;96.32
14154;DHT22;7157;53.144;7.570;2023-12-22T00:38:08;6.45;91.78
14154;DHT22;7157;53.144;7.570;2023-12-22T00:48:11;3.72;111.65
14154;DHT22;7157;53.144;7.570;2023-12-22T00:58:16;4.10;110.93
14154;DHT22;7157;53.144;7.570;2023-12-22T01:08:19;4.38;110.16
14154;DHT22;7157;53.144;7.570;2023-12-22T01:18:23;4.79;108.70
14154;DHT22;7157;53.144;7.570;2023-12-22T01:28:30;4.80;107.66
14154;DHT22;7157;53.144;7.570;2023-12-22T01:38:34;5.13;104.02
14154;DHT22;7157;53.144;7.570;2023-12-22T01:48:37;5.25;103.70
14154;DHT22;7157;53.144;7.570;2023-12-22T01:58:42;5.80;100.30
14154;DHT22;7157;53.144;7.570;2023-12-22T02:08:46;6.09;98.34
14154;DHT22;7157;53.144;7.570;2023-12-22T02:18:53;6.43;92.26
14154;DHT22;7157;53.144;7.570;2023-12-22T02:28:59;6.56;91.87
14154;DHT22;7157;53.144;7.570;2023-12-22T02:39:03;6.79;90.06
14154;DHT22;7157;53.144;7.570;2023-12-22T02:49:08;6.38;94.28
14154;DHT22;7157;53.144;7.570;2023-12-22T02:59:12;6.59;92.04
14154;DHT22;7157;53.144;7.570;2023-12-22T03:09:16;6.39;91.90
14154;DHT22;7157;53.144;7.570;2023-12-22T03:19:19;6.35;92.55
14154;DHT22;7157;53.144;7.570;2023-12-22T03:29:23;6.68;88.61
14154;DHT22;7157;53.144;7.570;2023-12-22T03:39:26;6.71;89.44
14154;DHT22;7157;53.144;7.570;2023-12-22T03:49:30;6.57;88.32
14154;DHT22;7157;53.144;7.570;2023-12-22T03:59:32;6.15;91.39
14154;DHT22;7157;53.144;7.570;2023-12-22T04:09:38;6.27;93.17
14154;DHT22;7157;53.144;7.570;2023-12-22T04:19:41;6.16;95.71
14154;DHT22;7157;53.144;7.570;2023-12-22T04:29:45;6.14;94.23
14154;DHT22;7157;53.144;7.570;2023-12-22T04:39:48;5.91;94.33
14154;DHT22;7157;53.144;7.570;2023-12-22T04:49:52;6.04;97.61
14154;DHT22;7157;53.144;7.570;2023-12-22T04:59:55;6.21;97.65
14154;DHT22;7157;53.144;7.570;2023-12-22T05:09:59;6.67;95.01
14154;DHT22;7157;53.144;7.570;2023-12-22T05:20:02;6.55;95.52
14154;DHT22;7157;53.144;7.570;2023-12-22T05:30:07;6.70;91.21
14154;DHT22;7157;53.144;7.570;2023-12-22T05:40:10;6.61;90.46
14154;DHT22;7157;53.144;7.570;2023-12-22T05:50:15;6.68;89.26
14154;DHT22;7157;53.144;7.570;2023-12-22T06:00:18;6.74;90.20
14154;DHT22;7157;53.144;7.570;2023-12-22T06:10:23;6.87;89.63
14154;DHT22;7157;53.144;7.570;2023-12-22T06:20:26;6.97;86.06
14154;DHT22;7157;53.144;7.570;2023-12-22T06:30:30;7.00;85.72
14154;DHT22;7157;53.144;7.570;2023-12-22T06:40:34;7.33;85.75
14154;DHT22;7157;53.144;7.570;2023-12-22T06:50:38;7.16;85.75
14154;DHT22;7157;53.144;7.570;2023-12-22T07:00:42;7.04;84.58
14154;DHT22;7157;53.144;7.570;2023-12-22T07:10:46;7.22;84.38
14154;DHT22;7157;53.144;7.570;2023-12-22T07:20:49;7.37;84.18
14154;DHT22;7157;53.144;7.570;2023-12-22T07:30:54;7.40;83.55
14154;DHT22;7157;53.144;7.570;2023-12-22T07:40:57;7.16;85.00
14154;DHT22;7157;53.144;7.570;2023-12-22T07:51:01;7.34;80.04
14154;DHT22;7157;53.144;7.570;2023-12-22T08:01:05;7.01;80.97
14154;DHT22;7157;53.144;7.570;2023-12-22T08:11:09;7.15;83.07
14154;DHT22;7157;53.144;7.570;2023-12-22T08:21:13;6.82;85.36
14154;DHT22;7157;53.144;7.570;2023-12-22T08:31:35;6.72;88.35
14154;DHT22;7157;53.144;7.570;2023-12-22T08:41:38;7.13;88.24
14154;DHT22;7157;53.144;7.570;2023-12-22T08:51:42;6.78;91.40
14154;DHT22;7157;53.144;7.570;2023-12-22T09:01:45;6.63;93.90
14154;DHT22;7157;53.144;7.570;2023-12-22T09:11:49;6.49;96.45
14154;DHT22;7157;53.144;7.570;2023-12-22T09:21:53;6.65;97.20
14154;DHT22;7157;53.144;7.570;2023-12-22T09:31:57;7.03;97.17
14154;DHT22;7157;53.144;7.570;2023-12-22T09:42:00;6.94;99.37
14154;DHT22;7157;53.144;7.570;2023-12-22T09:52:06;7.02;99.13
14154;DHT22;7157;53.144;7.570;2023-12-22T10:02:09;7.11;98.99
14154;DHT22;7157;53.144;7.570;2023-12-22T10:12:14;7.33;97.87
14154;DHT22;7157;53.144;7.570;2023-12-22T10:22:17;7.31;98.74
14154;DHT22;7157;53.144;7.570;2023-12-22T10:32:21;7.42;98.98
14154;DHT22;7157;53.144;7.570;2023-12-22T10:42:24;7.43;101.56
14154;DHT22;7157;53.144;7.570;2023-12-22T10:52:29;7.19;105.26
14154;DHT22;7157;53.144;7.570;2023-12-22T11:02:33;7.33;104.54
14154;DHT22;7157;53.144;7.570;2023-12-22T11:12:38;7.57;103.58
14154;DHT22;7157;53.144;7.570;2023-12-22T11:22:42;8.14;100.99
14154;DHT22;7157;53.144;7.570;2023-12-22T11:32:47;8.05;100.71
14154;DHT22;7157;53.144;7.570;2023-12-22T11:42:52;8.09;100.29
14154;DHT22;7157;53.144;7.570;2023-12-22T11:52:57;8.29;98.14
14154;DHT22;7157;53.144;7.570;2023-12-22T12:03:19;8.30;98.16
14154;DHT22;7157;53.144;7.570;2023-12-22T12:13:23;8.20;99.87
14154;DHT22;7157;53.144;7.570;2023-12-22T12:23:28;8.12;100.96
14154;DHT22;7157;53.144;7.570;2023-12-22T12:33:32;8.05;101.34
14154;DHT22;7157;53.144;7.570;2023-12-22T12:43:36;8.17;100.82
14154;DHT22;7157;53.144;7.570;2023-12-22T12:53:45;8.27;101.23
14154;DHT22;7157;53.144;7.570;2023-12-22T13:03:51;5.98;107.24
14154;DHT22;7157;53.144;7.570;2023-12-22T13:13:57;6.08;112.61
14154;DHT22;7157;53.144;7.570;2023-12-22T13:24:10;6.31;114.29
14154;DHT22;7157;53.144;7.570;2023-12-22T13:34:15;6.50;115.15
14154;DHT22;7157;53.144;7.570;2023-12-22T13:44:17;6.71;115.78
14154;DHT22;7157;53.144;7.570;2023-12-22T13:54:31;6.88;115.71
14154;DHT22;7157;53.144;7.570;2023-12-22T14:04:34;6.73;115.46
14154;DHT22;7157;53.144;7.570;2023-12-22T14:14:38;6.37;115.70
14154;DHT22;7157;53.144;7.570;2023-12-22T14:24:41;6.15;116.31
14154;DHT22;7157;53.144;7.570;2023-12-22T14:34:45;5.98;116.37
14154;DHT22;7157;53.144;7.570;2023-12-22T14:44:48;5.70;116.57
14154;DHT22;7157;53.144;7.570;2023-12-22T14:54:52;5.43;117.03
14154;DHT22;7157;53.144;7.570;2023-12-22T15:04:55;5.65;117.57
14154;DHT22;7157;53.144;7.570;2023-12-22T15:15:04;5.62;117.73
14154;DHT22;7157;53.144;7.570;2023-12-22T15:25:09;5.68;118.07
14154;DHT22;7157;53.144;7.570;2023-12-22T15:35:13;5.89;118.24
14154;DHT22;7157;53.144;7.570;2023-12-22T15:45:17;5.98;118.28
14154;DHT22;7157;53.144;7.570;2023-12-22T15:55:21;6.01;118.08
14154;DHT22;7157;53.144;7.570;2023-12-22T16:05:24;6.05;117.70
14154;DHT22;7157;53.144;7.570;2023-12-22T16:15:31;6.11;117.57
14154;DHT22;7157;53.144;7.570;2023-12-22T16:25:34;6.28;116.86
14154;DHT22;7157;53.144;7.570;2023-12-22T16:35:38;6.42;116.84
14154;DHT22;7157;53.144;7.570;2023-12-22T16:45:41;6.37;117.66
14154;DHT22;7157;53.144;7.570;2023-12-22T16:55:46;6.02;115.96
14154;DHT22;7157;53.144;7.570;2023-12-22T17:05:49;5.90;116.07
14154;DHT22;7157;53.144;7.570;2023-12-22T17:15:54;6.07;115.50
14154;DHT22;7157;53.144;7.570;2023-12-22T17:25:57;6.41;115.86
14154;DHT22;7157;53.144;7.570;2023-12-22T17:36:01;6.44;115.86
14154;DHT22;7157;53.144;7.570;2023-12-22T17:46:04;6.30;116.55
14154;DHT22;7157;53.144;7.570;2023-12-22T17:56:10;6.34;116.92
14154;DHT22;7157;53.144;7.570;2023-12-22T18:06:17;5.90;115.07
14154;DHT22;7157;53.144;7.570;2023-12-22T18:16:21;5.52;115.77
14154;DHT22;7157;53.144;7.570;2023-12-22T18:26:23;5.17;116.06
14154;DHT22;7157;53.144;7.570;2023-12-22T18:36:28;5.09;116.23
14154;DHT22;7157;53.144;7.570;2023-12-22T18:46:30;5.13;115.21
14154;DHT22;7157;53.144;7.570;2023-12-22T18:56:35;5.39;114.65
14154;DHT22;7157;53.144;7.570;2023-12-22T19:06:38;5.65;113.11
14154;DHT22;7157;53.144;7.570;2023-12-22T19:16:42;5.64;113.32
14154;DHT22;7157;53.144;7.570;2023-12-22T19:26:45;5.67;111.97
14154;DHT22;7157;53.144;7.570;2023-12-22T19:36:50;5.77;111.26
14154;DHT22;7157;53.144;7.570;2023-12-22T19:46:53;5.74;112.22
14154;DHT22;7157;53.144;7.570;2023-12-22T19:56:57;5.60;112.08
14154;DHT22;7157;53.144;7.570;2023-12-22T20:07:00;5.07;114.38
14154;DHT22;7157;53.144;7.570;2023-12-22T20:17:04;4.98;116.15
14154;DHT22;7157;53.144;7.570;2023-12-22T20:27:07;4.64;115.68
14154;DHT22;7157;53.144;7.570;2023-12-22T20:37:11;4.48;115.50
14154;DHT22;7157;53.144;7.570;2023-12-22T20:47:14;4.79;114.48
14154;DHT22;7157;53.144;7.570;2023-12-22T20:57:19;5.03;114.03
14154;DHT22;7157;53.144;7.570;2023-12-22T21:07:22;5.09;113.77
14154;DHT22;7157;53.144;7.570;2023-12-22T21:17:27;5.45;111.39
14154;DHT22;7157;53.144;7.570;2023-12-22T21:27:30;5.35;109.92
14154;DHT22;7157;53.144;7.570;2023-12-22T21:37:34;4.65;109.16
14154;DHT22;7157;53.144;7.570;2023-12-22T21:47:37;4.72;109.59
14154;DHT22;7157;53.144;7.570;2023-12-22T21:57:41;4.89;108.62
14154;DHT22;7157;53.144;7.570;2023-12-22T22:07:44;4.87;110.31
14154;DHT22;7157;53.144;7.570;2023-12-22T22:17:49;4.76;110.20
14154;DHT22;7157;53.144;7.570;2023-12-22T22:27:52;4.74;108.11
14154;DHT22;7157;53.144;7.570;2023-12-22T22:37:56;4.64;106.98
14154;DHT22;7157;53.144;7.570;2023-12-22T22:47:59;4.81;107.93
14154;DHT22;7157;53.144;7.570;2023-12-22T22:58:04;4.80;106.13
14154;DHT22;7157;53.144;7.570;2023-12-22T23:08:07;5.04;105.53
14154;DHT22;7157;53.144;7.570;2023-12-22T23:18:12;5.18;101.39
14154;DHT22;7157;53.144;7.570;2023-12-22T23:28:15;5.33;101.69
14154;DHT22;7157;53.144;7.570;2023-12-22T23:38:19;5.24;100.50
14154;DHT22;7157;53.144;7.570;2023-12-22T23:48:22;5.30;103.51
14154;DHT22;7157;53.144;7.570;2023-12-22T23:58:27;5.19;102.28
